Time;durP1;ratioP1;P1;durP2;ratioP2;P2;SDS_P1;SDS_P2;PMS_P1;PMS_P2;Temp;Humidity;BMP_temperature;BMP_pressure;BME280_temperature;BME280_humidity;BME280_pressure;Samples;Min_cycle;Max_cycle;Signal;HPM_P1;HPM_P2
2021/05/21 00:01:30;;;;;;;0.65;0.43;;;;;;;-142.37;100.00;59669.53;5034633;28;20021;-63
2021/05/21 00:03:55;;;;;;;1.08;0.40;;;;;;;-142.37;100.00;59669.53;5034892;28;20049;-63
2021/05/21 00:06:20;;;;;;;1.77;0.38;;;;;;;-142.37;100.00;59669.53;5033627;28;20453;-63
2021/05/21 00:08:46;;;;;;;1.67;0.65;;;;;;;-142.37;100.00;59669.53;5034701;28;20032;-63
2021/05/21 00:11:11;;;;;;;1.83;0.60;;;;;;;-142.37;100.00;59669.53;5034887;28;20031;-64
2021/05/21 00:13:37;;;;;;;1.15;0.40;;;;;;;-142.37;100.00;59669.53;5034580;28;20021;-63
2021/05/21 00:16:02;;;;;;;1.02;0.55;;;;;;;-142.37;100.00;59669.53;5034634;28;20389;-63
2021/05/21 00:18:28;;;;;;;2.13;0.70;;;;;;;-142.37;100.00;59669.53;5034513;28;20033;-63
2021/05/21 00:20:53;;;;;;;1.27;0.77;;;;;;;-142.37;100.00;59669.53;5034388;28;20053;-63
2021/05/21 00:23:19;;;;;;;1.70;0.57;;;;;;;-142.37;100.00;59669.53;5034637;28;20061;-63
2021/05/21 00:25:44;;;;;;;2.30;0.40;;;;;;;-142.37;100.00;59669.53;5034058;28;20029;-61
2021/05/21 00:28:10;;;;;;;2.35;0.40;;;;;;;-142.37;100.00;59669.53;5034298;28;20086;-63
2021/05/21 00:30:35;;;;;;;1.45;0.73;;;;;;;-142.37;100.00;59669.53;5033336;28;20059;-62
2021/05/21 00:33:01;;;;;;;1.70;0.60;;;;;;;-142.37;100.00;59669.53;5034468;28;20017;-63
2021/05/21 00:35:26;;;;;;;1.50;0.75;;;;;;;-142.37;100.00;59669.53;5032941;28;20358;-63
2021/05/21 00:37:51;;;;;;;3.05;0.55;;;;;;;-142.37;100.00;59669.53;5034180;28;20132;-63
2021/05/21 00:40:17;;;;;;;0.75;0.35;;;;;;;-142.37;100.00;59669.53;5034227;28;20021;-63
2021/05/21 00:42:42;;;;;;;2.33;0.60;;;;;;;-142.37;100.00;59669.53;5032698;28;20032;-63
2021/05/21 00:45:08;;;;;;;0.57;0.50;;;;;;;-142.37;100.00;59669.53;5034185;28;20025;-63
2021/05/21 00:47:34;;;;;;;1.90;0.73;;;;;;;-142.37;100.00;59669.53;5034233;28;20021;-63
2021/05/21 00:49:59;;;;;;;1.10;0.40;;;;;;;-142.37;100.00;59669.53;5033984;28;20436;-63
2021/05/21 00:52:27;;;;;;;1.30;0.50;;;;;;;-142.37;100.00;59669.53;5034135;28;20104;-63
2021/05/21 00:54:53;;;;;;;1.38;0.40;;;;;;;-142.37;100.00;59669.53;5033943;28;20032;-63
2021/05/21 00:57:19;;;;;;;2.42;0.50;;;;;;;-142.37;100.00;59669.53;5033620;28;20033;-63
2021/05/21 00:59:45;;;;;;;1.88;0.60;;;;;;;-142.37;100.00;59669.53;5033788;28;20033;-63
2021/05/21 01:02:11;;;;;;;0.98;0.43;;;;;;;-142.37;100.00;59669.53;5032433;28;20044;-63
2021/05/21 01:04:38;;;;;;;2.22;0.50;;;;;;;-142.37;100.00;59669.53;5033687;28;20290;-62
2021/05/21 01:07:05;;;;;;;0.93;0.63;;;;;;;-142.37;100.00;59669.53;5033865;28;20029;-63
2021/05/21 01:09:30;;;;;;;2.40;0.52;;;;;;;-142.37;100.00;59669.53;5033062;28;20021;-63
2021/05/21 01:11:56;;;;;;;1.77;0.50;;;;;;;-142.37;100.00;59669.53;5033214;28;20022;-62
2021/05/21 01:14:21;;;;;;;1.42;0.60;;;;;;;-142.37;100.00;59669.53;5033589;28;20068;-63
2021/05/21 01:16:46;;;;;;;1.02;0.35;;;;;;;-142.37;100.00;59669.53;5033461;28;20049;-63
2021/05/21 01:19:12;;;;;;;2.00;0.70;;;;;;;-142.37;100.00;59669.53;5033573;28;20103;-61
2021/05/21 01:21:37;;;;;;;1.50;0.45;;;;;;;-142.37;100.00;59669.53;5033069;28;20053;-62
2021/05/21 01:24:05;;;;;;;2.38;0.47;;;;;;;-142.37;100.00;59669.53;5033370;28;20021;-63
2021/05/21 01:26:31;;;;;;;0.88;0.40;;;;;;;-142.37;100.00;59669.53;5033002;28;20026;-62
2021/05/21 01:28:56;;;;;;;0.73;0.40;;;;;;;-142.37;100.00;59669.53;5026935;28;20028;-62
2021/05/21 01:31:23;;;;;;;1.60;0.52;;;;;;;-142.37;100.00;59669.53;5013588;28;20101;-63
2021/05/21 01:33:49;;;;;;;2.55;0.50;;;;;;;-142.37;100.00;59669.53;5012233;28;20045;-62
2021/05/21 01:36:15;;;;;;;0.45;0.40;;;;;;;-142.37;100.00;59669.53;5013390;28;20093;-63
2021/05/21 01:38:56;;;;;;;2.45;0.57;;;;;;;-142.37;100.00;59669.53;5013245;28;20060;-62
2021/05/21 01:41:22;;;;;;;1.08;0.40;;;;;;;-142.37;100.00;59669.53;5013313;28;20359;-62
2021/05/21 01:43:47;;;;;;;1.42;0.50;;;;;;;-142.37;100.00;59669.53;5013560;28;20026;-62
2021/05/21 01:46:13;;;;;;;1.73;0.47;;;;;;;-142.37;100.00;59669.53;5013285;28;20377;-63
2021/05/21 01:48:38;;;;;;;1.63;0.40;;;;;;;-142.37;100.00;59669.53;5013133;28;20033;-62
2021/05/21 01:51:04;;;;;;;0.88;0.30;;;;;;;-142.37;100.00;59669.53;5013356;28;20104;-63
2021/05/21 01:53:29;;;;;;;1.27;0.52;;;;;;;-142.37;100.00;59669.53;5012998;28;20469;-62
2021/05/21 01:55:55;;;;;;;1.35;0.57;;;;;;;-142.37;100.00;59669.53;5020052;28;20060;-63
2021/05/21 01:58:20;;;;;;;1.65;0.60;;;;;;;-142.37;100.00;59669.53;5033178;28;20389;-62
2021/05/21 02:00:45;;;;;;;2.42;0.50;;;;;;;-142.37;100.00;59669.53;5032580;28;20083;-63
2021/05/21 02:03:11;;;;;;;1.85;0.50;;;;;;;-142.37;100.00;59669.53;5032792;28;20345;-63
2021/05/21 02:05:36;;;;;;;1.38;0.47;;;;;;;-142.37;100.00;59669.53;5032558;28;20017;-62
2021/05/21 02:08:01;;;;;;;1.02;0.40;;;;;;;-142.37;100.00;59669.53;5032774;28;20021;-62
2021/05/21 02:10:27;;;;;;;1.45;0.45;;;;;;;-142.37;100.00;59669.53;5032593;28;20443;-62
2021/05/21 02:12:52;;;;;;;1.30;0.40;;;;;;;-142.37;100.00;59669.53;5032582;28;20029;-63
2021/05/21 02:15:17;;;;;;;2.30;0.70;;;;;;;-142.37;100.00;59669.53;5032733;28;20040;-62
2021/05/21 02:17:43;;;;;;;1.25;0.45;;;;;;;-142.37;100.00;59669.53;5032471;28;20025;-62
2021/05/21 02:20:09;;;;;;;1.90;0.32;;;;;;;-142.37;100.00;59669.53;5032456;28;20025;-62
2021/05/21 02:22:39;;;;;;;3.50;0.77;;;;;;;-142.37;100.00;59669.53;5032183;28;20396;-62
2021/05/21 02:25:04;;;;;;;1.02;0.40;;;;;;;-142.37;100.00;59669.53;5032341;28;20021;-61
2021/05/21 02:27:30;;;;;;;2.40;0.40;;;;;;;-142.37;100.00;59669.53;5032433;28;20499;-61
2021/05/21 02:29:55;;;;;;;3.60;0.68;;;;;;;-142.37;100.00;59669.53;5018268;28;20025;-62
2021/05/21 02:32:21;;;;;;;0.70;0.50;;;;;;;-142.37;100.00;59669.53;5013070;28;20046;-62
2021/05/21 02:34:47;;;;;;;2.03;0.50;;;;;;;-142.37;100.00;59669.53;5012650;28;20485;-62
2021/05/21 02:37:12;;;;;;;0.47;0.40;;;;;;;-142.37;100.00;59669.53;5012769;28;20109;-62
2021/05/21 02:39:39;;;;;;;2.15;0.63;;;;;;;-142.37;100.00;59669.53;5012518;28;20033;-62
2021/05/21 02:42:04;;;;;;;2.70;0.80;;;;;;;-142.37;100.00;59669.53;5012572;28;20412;-61
2021/05/21 02:44:30;;;;;;;1.75;0.38;;;;;;;-142.37;100.00;59669.53;5012449;28;20030;-62
2021/05/21 02:46:55;;;;;;;0.68;0.38;;;;;;;-142.37;100.00;59669.53;5011282;28;20573;-62
2021/05/21 02:49:21;;;;;;;2.60;0.45;;;;;;;-142.37;100.00;59669.53;5012476;28;20109;-62
2021/05/21 02:51:52;;;;;;;0.85;0.35;;;;;;;-142.37;100.00;59669.53;5012452;28;20018;-63
2021/05/21 02:54:18;;;;;;;2.30;0.32;;;;;;;-142.37;100.00;59669.53;5012526;28;20033;-62
2021/05/21 02:56:43;;;;;;;2.13;0.55;;;;;;;-142.37;100.00;59669.53;5027804;28;20048;-62
2021/05/21 02:59:09;;;;;;;0.90;0.43;;;;;;;-142.37;100.00;59669.53;5032343;28;20124;-63
2021/05/21 03:01:34;;;;;;;1.42;0.20;;;;;;;-142.37;100.00;59669.53;5031988;28;20025;-63
2021/05/21 03:04:00;;;;;;;0.93;0.52;;;;;;;-142.37;100.00;59669.53;5032050;28;20029;-62
2021/05/21 03:06:25;;;;;;;1.73;0.40;;;;;;;-142.37;100.00;59669.53;5032059;28;20026;-62
2021/05/21 03:08:50;;;;;;;1.23;0.50;;;;;;;-142.37;100.00;59669.53;5032077;28;20099;-62
2021/05/21 03:11:17;;;;;;;1.60;0.50;;;;;;;-142.37;100.00;59669.53;5032196;28;20029;-63
2021/05/21 03:13:42;;;;;;;0.60;0.30;;;;;;;-142.37;100.00;59669.53;5032260;28;20017;-62
2021/05/21 03:16:07;;;;;;;2.60;0.55;;;;;;;-142.37;100.00;59669.53;5031954;28;20036;-63
2021/05/21 03:18:33;;;;;;;2.58;0.40;;;;;;;-142.37;100.00;59669.53;5031916;28;20035;-62
2021/05/21 03:20:58;;;;;;;0.90;0.30;;;;;;;-142.37;100.00;59669.53;5031808;28;20049;-62
2021/05/21 03:23:23;;;;;;;2.72;0.50;;;;;;;-142.37;100.00;59669.53;5031908;28;20519;-62
2021/05/21 03:25:48;;;;;;;1.70;0.40;;;;;;;-142.37;100.00;59669.53;5031719;28;20120;-63
2021/05/21 03:28:15;;;;;;;2.88;0.55;;;;;;;-142.37;100.00;59669.53;5030062;28;20473;-62
2021/05/21 03:30:40;;;;;;;1.33;0.43;;;;;;;-142.37;100.00;59669.53;5012093;28;20030;-61
2021/05/21 03:33:09;;;;;;;0.90;0.52;;;;;;;-142.37;100.00;59669.53;5012597;28;20080;-62
2021/05/21 03:35:35;;;;;;;1.58;0.50;;;;;;;-142.37;100.00;59669.53;5015634;28;20041;-62
2021/05/21 03:38:03;;;;;;;1.50;0.70;;;;;;;-142.37;100.00;59669.53;5015615;28;20018;-62
2021/05/21 03:40:29;;;;;;;0.70;0.30;;;;;;;-142.37;100.00;59669.53;5015519;28;20026;-62
2021/05/21 03:42:54;;;;;;;1.38;0.40;;;;;;;-142.37;100.00;59669.53;5015558;28;20466;-62
2021/05/21 03:45:19;;;;;;;0.43;0.17;;;;;;;-142.37;100.00;59669.53;5016087;28;20477;-62
2021/05/21 03:47:45;;;;;;;1.30;0.32;;;;;;;-142.37;100.00;59669.53;5015401;28;20033;-62
2021/05/21 03:50:12;;;;;;;1.33;0.40;;;;;;;-142.37;100.00;59669.53;5015410;28;20090;-62
2021/05/21 03:52:37;;;;;;;1.60;0.30;;;;;;;-142.37;100.00;59669.53;5015241;28;20028;-62
2021/05/21 03:55:04;;;;;;;2.10;0.40;;;;;;;-142.37;100.00;59669.53;5019344;28;20029;-61
2021/05/21 03:57:29;;;;;;;1.02;0.47;;;;;;;-142.37;100.00;59669.53;5034913;28;20380;-62
2021/05/21 03:59:55;;;;;;;1.75;0.30;;;;;;;-142.37;100.00;59669.53;5034955;28;20025;-62
2021/05/21 04:02:20;;;;;;;0.50;0.20;;;;;;;-142.37;100.00;59669.53;5034821;28;20021;-62
2021/05/21 04:04:46;;;;;;;0.52;0.25;;;;;;;-142.37;100.00;59669.53;5034818;28;20036;-62
2021/05/21 04:07:11;;;;;;;1.65;0.30;;;;;;;-142.37;100.00;59669.53;5034940;28;20064;-62
2021/05/21 04:09:36;;;;;;;2.28;0.30;;;;;;;-142.37;100.00;59669.53;5034740;28;20034;-62
2021/05/21 04:12:02;;;;;;;1.27;0.85;;;;;;;-142.37;100.00;59669.53;5034410;28;20029;-62
2021/05/21 04:14:27;;;;;;;1.25;0.30;;;;;;;-142.37;100.00;59669.53;5034705;28;20029;-62
2021/05/21 04:16:52;;;;;;;0.47;0.20;;;;;;;-142.37;100.00;59669.53;5035014;28;20017;-62
2021/05/21 04:19:18;;;;;;;1.30;0.20;;;;;;;-142.37;100.00;59669.53;5034770;28;20036;-62
2021/05/21 04:21:43;;;;;;;1.52;0.40;;;;;;;-142.37;100.00;59669.53;5034222;28;20053;-61
2021/05/21 04:24:09;;;;;;;1.50;0.25;;;;;;;-142.37;100.00;59669.53;5034557;28;20068;-61
2021/05/21 04:26:34;;;;;;;1.65;0.60;;;;;;;-142.37;100.00;59669.53;5034067;28;20036;-62
2021/05/21 04:29:00;;;;;;;1.40;0.22;;;;;;;-142.37;100.00;59669.53;5028258;28;20045;-62
2021/05/21 04:31:25;;;;;;;3.20;0.35;;;;;;;-142.37;100.00;59669.53;5014602;28;20377;-61
2021/05/21 04:33:51;;;;;;;0.98;0.25;;;;;;;-142.37;100.00;59669.53;5014607;28;20025;-62
2021/05/21 04:36:16;;;;;;;0.47;0.10;;;;;;;-142.37;100.00;59669.53;5014556;28;20026;-61
2021/05/21 04:38:42;;;;;;;1.48;0.22;;;;;;;-142.37;100.00;59669.53;5014376;28;20034;-62
2021/05/21 04:41:07;;;;;;;0.73;0.20;;;;;;;-142.37;100.00;59669.53;5014457;28;20374;-62
2021/05/21 04:43:32;;;;;;;2.35;0.20;;;;;;;-142.37;100.00;59669.53;5014345;28;20064;-62
2021/05/21 04:46:00;;;;;;;1.35;0.40;;;;;;;-142.37;100.00;59669.53;5014263;28;20025;-62
2021/05/21 04:48:25;;;;;;;1.25;0.38;;;;;;;-142.37;100.00;59669.53;5014323;28;20470;-62
2021/05/21 04:50:50;;;;;;;1.45;0.25;;;;;;;-142.37;100.00;59669.53;5014307;28;20032;-62
2021/05/21 04:53:16;;;;;;;0.75;0.10;;;;;;;-142.37;100.00;59669.53;5014633;28;20036;-62
2021/05/21 04:55:41;;;;;;;0.73;0.20;;;;;;;-142.37;100.00;59669.53;5025909;28;20033;-62
2021/05/21 04:58:07;;;;;;;1.92;0.25;;;;;;;-142.37;100.00;59669.53;5033930;28;20070;-62
2021/05/21 05:00:34;;;;;;;0.70;0.20;;;;;;;-142.37;100.00;59669.53;5033787;28;20111;-62
2021/05/21 05:03:06;;;;;;;0.10;0.10;;;;;;;-142.37;100.00;59669.53;5032598;28;20469;-62
2021/05/21 05:05:32;;;;;;;0.98;0.13;;;;;;;-142.37;100.00;59669.53;5033665;28;20469;-61
2021/05/21 05:07:57;;;;;;;1.80;0.17;;;;;;;-142.37;100.00;59669.53;5033754;28;20025;-62
2021/05/21 05:10:22;;;;;;;1.05;0.75;;;;;;;-142.37;100.00;59669.53;5032442;28;20030;-62
2021/05/21 05:12:48;;;;;;;2.22;0.35;;;;;;;-142.37;100.00;59669.53;5033585;28;20090;-61
2021/05/21 05:15:13;;;;;;;0.30;0.10;;;;;;;-142.37;100.00;59669.53;5033709;28;20032;-62
2021/05/21 05:17:39;;;;;;;0.80;0.10;;;;;;;-142.37;100.00;59669.53;5033416;28;20436;-62
2021/05/21 05:20:04;;;;;;;1.10;0.13;;;;;;;-142.37;100.00;59669.53;5033394;28;20397;-62
2021/05/21 05:22:30;;;;;;;0.57;0.22;;;;;;;-142.37;100.00;59669.53;5033281;28;20064;-63
2021/05/21 05:24:56;;;;;;;1.02;0.20;;;;;;;-142.37;100.00;59669.53;5033195;28;20416;-62
2021/05/21 05:27:22;;;;;;;1.30;0.30;;;;;;;-142.37;100.00;59669.53;5033423;28;20037;-62
2021/05/21 05:29:48;;;;;;;1.30;0.13;;;;;;;-142.37;100.00;59669.53;5019900;28;20038;-62
2021/05/21 05:32:14;;;;;;;1.35;0.57;;;;;;;-142.37;100.00;59669.53;5013583;28;20084;-62
2021/05/21 05:34:39;;;;;;;0.65;0.10;;;;;;;-142.37;100.00;59669.53;5013358;28;20428;-62
2021/05/21 05:37:04;;;;;;;0.30;0.10;;;;;;;-142.37;100.00;59669.53;5013575;28;20057;-62
2021/05/21 05:39:30;;;;;;;0.35;0.05;;;;;;;-142.37;100.00;59669.53;5013265;28;20030;-62
2021/05/21 05:41:55;;;;;;;4.30;1.00;;;;;;;-142.37;100.00;59669.53;5013272;28;20440;-62
2021/05/21 05:44:20;;;;;;;0.20;0.10;;;;;;;-142.37;100.00;59669.53;5013414;28;20033;-62
2021/05/21 05:46:46;;;;;;;0.75;0.10;;;;;;;-142.37;100.00;59669.53;5013206;28;20021;-62
2021/05/21 05:49:12;;;;;;;0.40;0.13;;;;;;;-142.37;100.00;59669.53;5013358;28;20030;-62
2021/05/21 05:51:37;;;;;;;1.45;0.15;;;;;;;-142.37;100.00;59669.53;5013099;28;20029;-61
2021/05/21 05:54:03;;;;;;;1.27;0.63;;;;;;;-142.37;100.00;59669.53;5013433;28;20022;-62
2021/05/21 05:56:29;;;;;;;0.55;0.20;;;;;;;-142.37;100.00;59669.53;5031804;28;20034;-62
2021/05/21 05:58:54;;;;;;;0.65;0.20;;;;;;;-142.37;100.00;59669.53;5033215;28;20088;-62
2021/05/21 06:01:20;;;;;;;1.10;0.10;;;;;;;-142.37;100.00;59669.53;5032660;28;20461;-62
2021/05/21 06:03:45;;;;;;;0.50;0.10;;;;;;;-142.37;100.00;59669.53;5032694;28;20033;-62
2021/05/21 06:06:11;;;;;;;1.10;0.10;;;;;;;-142.37;100.00;59669.53;5032754;28;20026;-62
2021/05/21 06:08:37;;;;;;;0.95;0.30;;;;;;;-142.37;100.00;59669.53;5032604;28;20052;-62
2021/05/21 06:11:02;;;;;;;0.55;0.10;;;;;;;-142.37;100.00;59669.53;5032002;28;20021;-62
2021/05/21 06:13:28;;;;;;;0.65;0.08;;;;;;;-142.37;100.00;59669.53;5032588;28;20040;-62
2021/05/21 06:15:53;;;;;;;0.68;0.17;;;;;;;-142.37;100.00;59669.53;5032861;28;20125;-62
2021/05/21 06:18:19;;;;;;;0.98;0.20;;;;;;;-142.37;100.00;59669.53;5032673;28;20061;-62
2021/05/21 06:20:45;;;;;;;0.30;0.20;;;;;;;-142.37;100.00;59669.53;5032281;28;20045;-62
2021/05/21 06:23:10;;;;;;;0.43;0.20;;;;;;;-142.37;100.00;59669.53;5032665;28;20469;-61
2021/05/21 06:28:15;;;;;;;0.22;0.03;;;;;;;-142.37;100.00;59669.53;5032802;28;20026;-62
2021/05/21 06:30:40;;;;;;;0.65;0.20;;;;;;;-142.37;100.00;59669.53;5012577;28;20029;-62
2021/05/21 06:33:06;;;;;;;1.02;0.30;;;;;;;-142.37;100.00;59669.53;5013616;28;20381;-62
2021/05/21 06:35:34;;;;;;;1.02;0.20;;;;;;;-142.37;100.00;59669.53;5016171;28;20042;-62
2021/05/21 06:37:59;;;;;;;1.27;0.20;;;;;;;-142.37;100.00;59669.53;5020573;28;20037;-62
2021/05/21 06:40:25;;;;;;;2.28;0.40;;;;;;;-142.37;100.00;59669.53;5013607;28;20389;-61
2021/05/21 06:42:50;;;;;;;1.15;0.25;;;;;;;-142.37;100.00;59669.53;5020352;28;20140;-61
2021/05/21 06:45:15;;;;;;;0.45;0.17;;;;;;;-142.37;100.00;59669.53;5032197;28;20056;-62
2021/05/21 06:47:41;;;;;;;0.43;0.10;;;;;;;-142.37;100.00;59669.53;5026033;28;20100;-62
2021/05/21 06:50:07;;;;;;;0.28;0.10;;;;;;;-142.37;100.00;59669.53;5016613;28;20037;-62
2021/05/21 06:52:33;;;;;;;1.50;0.30;;;;;;;-142.37;100.00;59669.53;5028607;28;20017;-62
2021/05/21 06:54:59;;;;;;;0.43;0.20;;;;;;;-142.37;100.00;59669.53;5024304;28;20489;-62
2021/05/21 06:57:24;;;;;;;0.20;0.10;;;;;;;-142.37;100.00;59669.53;5018836;28;20045;-62
2021/05/21 06:59:49;;;;;;;0.30;0.10;;;;;;;-142.37;100.00;59669.53;5017187;28;20021;-62
2021/05/21 07:02:15;;;;;;;0.43;0.28;;;;;;;-142.37;100.00;59669.53;5015985;28;20029;-62
2021/05/21 07:04:41;;;;;;;0.20;0.10;;;;;;;-142.37;100.00;59669.53;5013499;28;20381;-62
2021/05/21 07:07:06;;;;;;;1.38;0.17;;;;;;;-142.37;100.00;59669.53;5022867;28;20033;-63
2021/05/21 07:09:31;;;;;;;1.42;0.30;;;;;;;-142.37;100.00;59669.53;5014107;28;20030;-62
2021/05/21 07:11:57;;;;;;;1.65;0.30;;;;;;;-142.37;100.00;59669.53;5029769;28;20014;-61
2021/05/21 07:14:22;;;;;;;2.13;0.30;;;;;;;-142.37;100.00;59669.53;5016485;28;20028;-62
2021/05/21 07:16:48;;;;;;;1.08;0.20;;;;;;;-142.37;100.00;59669.53;5018000;28;20063;-61
2021/05/21 07:19:18;;;;;;;0.20;0.00;;;;;;;-142.37;100.00;59669.53;5021682;28;20061;-61
2021/05/21 07:21:46;;;;;;;2.22;0.60;;;;;;;-142.37;100.00;59669.53;5033183;28;20050;-61
2021/05/21 07:24:12;;;;;;;0.98;0.35;;;;;;;-142.37;100.00;59669.53;5033067;28;20105;-61
2021/05/21 07:26:37;;;;;;;0.55;0.20;;;;;;;-142.37;100.00;59669.53;5019618;28;20105;-61
2021/05/21 07:29:04;;;;;;;1.13;0.30;;;;;;;-142.37;100.00;59669.53;5021866;28;20037;-61
2021/05/21 07:31:30;;;;;;;0.20;0.10;;;;;;;-142.37;100.00;59669.53;5033445;28;20026;-60
2021/05/21 07:33:59;;;;;;;1.45;0.20;;;;;;;-142.37;100.00;59669.53;5032511;28;20021;-60
2021/05/21 07:36:28;;;;;;;3.00;0.52;;;;;;;-142.37;100.00;59669.53;5015462;28;20057;-61
2021/05/21 07:38:55;;;;;;;0.52;0.10;;;;;;;-142.37;100.00;59669.53;5031915;28;20480;-61
2021/05/21 07:41:22;;;;;;;0.70;0.28;;;;;;;-142.37;100.00;59669.53;5032807;28;20033;-62
2021/05/21 07:43:49;;;;;;;0.82;0.28;;;;;;;-142.37;100.00;59669.53;5033297;28;20025;-61
2021/05/21 07:46:14;;;;;;;0.68;0.10;;;;;;;-142.37;100.00;59669.53;5033426;28;20357;-61
2021/05/21 07:48:40;;;;;;;2.05;0.30;;;;;;;-142.37;100.00;59669.53;5033113;28;20380;-60
2021/05/21 07:51:06;;;;;;;0.40;0.10;;;;;;;-142.37;100.00;59669.53;5016117;28;20080;-63
2021/05/21 07:53:33;;;;;;;0.90;0.20;;;;;;;-142.37;100.00;59669.53;5032516;28;20052;-64
2021/05/21 07:55:58;;;;;;;0.10;0.10;;;;;;;-142.37;100.00;59669.53;5035347;28;20095;-64
2021/05/21 07:58:25;;;;;;;0.82;0.25;;;;;;;-142.37;100.00;59669.53;5033964;28;20018;-65
2021/05/21 08:00:52;;;;;;;1.05;0.15;;;;;;;-142.37;100.00;59669.53;5034390;28;20091;-66
2021/05/21 08:03:17;;;;;;;0.77;0.10;;;;;;;-142.37;100.00;59669.53;5034166;28;20060;-66
2021/05/21 08:05:43;;;;;;;0.57;0.17;;;;;;;-142.37;100.00;59669.53;5032634;28;20492;-66
2021/05/21 08:08:09;;;;;;;1.05;0.17;;;;;;;-142.37;100.00;59669.53;5032847;28;20064;-66
2021/05/21 08:10:34;;;;;;;1.42;0.85;;;;;;;-142.37;100.00;59669.53;5027944;28;20056;-65
2021/05/21 08:13:03;;;;;;;0.13;0.10;;;;;;;-142.37;100.00;59669.53;5026211;28;20025;-66
2021/05/21 08:15:28;;;;;;;0.52;0.13;;;;;;;-142.37;100.00;59669.53;5031874;28;20029;-66
2021/05/21 08:17:54;;;;;;;0.93;0.17;;;;;;;-142.37;100.00;59669.53;5032914;28;20385;-65
2021/05/21 08:20:19;;;;;;;0.05;0.05;;;;;;;-142.37;100.00;59669.53;5016793;28;20080;-64
2021/05/21 08:22:47;;;;;;;1.05;0.40;;;;;;;-142.37;100.00;59669.53;5026219;28;20041;-66
2021/05/21 08:25:13;;;;;;;0.20;0.10;;;;;;;-142.37;100.00;59669.53;5034116;28;20021;-67
2021/05/21 08:27:39;;;;;;;0.30;0.10;;;;;;;-142.37;100.00;59669.53;5029228;28;20079;-66
2021/05/21 08:30:05;;;;;;;0.43;0.10;;;;;;;-142.37;100.00;59669.53;5031281;28;20029;-66
2021/05/21 08:32:30;;;;;;;1.38;0.30;;;;;;;-142.37;100.00;59669.53;5034327;28;20454;-66
2021/05/21 08:34:55;;;;;;;0.68;0.13;;;;;;;-142.37;100.00;59669.53;5030720;28;20028;-65
2021/05/21 08:37:21;;;;;;;0.52;0.10;;;;;;;-142.37;100.00;59669.53;5014529;28;20029;-66
2021/05/21 08:39:47;;;;;;;0.52;0.10;;;;;;;-142.37;100.00;59669.53;5019477;28;20575;-67
2021/05/21 08:42:15;;;;;;;0.50;0.28;;;;;;;-142.37;100.00;59669.53;5033457;28;20388;-67
2021/05/21 08:44:45;;;;;;;0.50;0.15;;;;;;;-142.37;100.00;59669.53;5033636;28;20025;-65
2021/05/21 08:47:11;;;;;;;0.95;0.10;;;;;;;-142.37;100.00;59669.53;5031435;28;20067;-65
2021/05/21 08:49:38;;;;;;;0.65;0.10;;;;;;;-142.37;100.00;59669.53;5025127;28;20427;-65
2021/05/21 08:52:03;;;;;;;0.47;0.15;;;;;;;-142.37;100.00;59669.53;5033521;28;20075;-67
2021/05/21 08:54:34;;;;;;;0.80;0.13;;;;;;;-142.37;100.00;59669.53;5022251;28;20104;-67
2021/05/21 08:57:00;;;;;;;0.63;0.20;;;;;;;-142.37;100.00;59669.53;5033650;28;20029;-66
2021/05/21 08:59:25;;;;;;;0.75;0.30;;;;;;;-142.37;100.00;59669.53;5032839;28;20017;-66
2021/05/21 09:01:57;;;;;;;0.80;0.17;;;;;;;-142.37;100.00;59669.53;5030932;28;20017;-66
2021/05/21 09:04:22;;;;;;;0.30;0.10;;;;;;;-142.37;100.00;59669.53;5029125;28;20109;-66
2021/05/21 09:06:47;;;;;;;1.50;0.40;;;;;;;-142.37;100.00;59669.53;5017652;28;20018;-66
2021/05/21 09:09:13;;;;;;;0.70;0.10;;;;;;;-142.37;100.00;59669.53;5030770;28;20039;-65
2021/05/21 09:11:41;;;;;;;1.60;0.25;;;;;;;-142.37;100.00;59669.53;5031306;28;20021;-67
2021/05/21 09:14:07;;;;;;;1.48;0.32;;;;;;;-142.37;100.00;59669.53;5031508;28;20033;-65
2021/05/21 09:16:38;;;;;;;0.68;0.30;;;;;;;-142.37;100.00;59669.53;5032468;28;20041;-66
2021/05/21 09:19:19;;;;;;;1.05;0.10;;;;;;;-142.37;100.00;59669.53;5031450;28;20025;-66
2021/05/21 09:22:04;;;;;;;1.00;0.25;;;;;;;-142.37;100.00;59669.53;5029116;28;20029;-66
2021/05/21 09:24:35;;;;;;;0.52;0.10;;;;;;;-142.37;100.00;59669.53;5028193;28;20172;-67
2021/05/21 09:27:03;;;;;;;1.45;0.10;;;;;;;-142.37;100.00;59669.53;5032876;28;20036;-68
2021/05/21 09:29:47;;;;;;;1.08;0.10;;;;;;;-142.37;100.00;59669.53;5028110;28;20098;-67
2021/05/21 09:32:19;;;;;;;0.80;0.13;;;;;;;-142.37;100.00;59669.53;5026876;28;20029;-68
2021/05/21 09:34:48;;;;;;;0.20;0.10;;;;;;;-142.37;100.00;59669.53;5025996;28;20025;-67
2021/05/21 09:37:21;;;;;;;1.20;0.43;;;;;;;-142.37;100.00;59669.53;5016411;28;20084;-68
2021/05/21 09:40:14;;;;;;;1.27;0.10;;;;;;;-142.37;100.00;59669.53;5017988;28;20473;-66
2021/05/21 09:42:50;;;;;;;1.17;0.13;;;;;;;-142.37;100.00;59669.53;5023244;28;20041;-67
2021/05/21 09:45:25;;;;;;;0.13;0.10;;;;;;;-142.37;100.00;59669.53;5022247;28;20021;-67
2021/05/21 09:47:55;;;;;;;0.45;0.10;;;;;;;-142.37;100.00;59669.53;5023147;28;20359;-65
2021/05/21 09:50:41;;;;;;;0.57;0.20;;;;;;;-142.37;100.00;59669.53;5022272;28;20252;-66
2021/05/21 09:53:15;;;;;;;0.32;0.10;;;;;;;-142.37;100.00;59669.53;5018326;28;20036;-65
2021/05/21 09:55:43;;;;;;;1.50;0.10;;;;;;;-142.37;100.00;59669.53;5024742;28;20512;-66
2021/05/21 09:58:23;;;;;;;0.30;0.10;;;;;;;-142.37;100.00;59669.53;5030007;28;20037;-66
2021/05/21 10:01:19;;;;;;;0.63;0.20;;;;;;;-142.37;100.00;59669.53;5030296;28;20021;-65
2021/05/21 10:03:55;;;;;;;0.77;0.20;;;;;;;-142.37;100.00;59669.53;5014204;28;20073;-65
2021/05/21 10:06:22;;;;;;;0.57;0.20;;;;;;;-142.37;100.00;59669.53;5011199;28;20017;-65
2021/05/21 10:08:48;;;;;;;0.25;0.10;;;;;;;-142.37;100.00;59669.53;5024604;28;20036;-70
2021/05/21 10:11:15;;;;;;;1.02;0.30;;;;;;;-142.37;100.00;59669.53;5024407;28;20034;-67
2021/05/21 10:13:43;;;;;;;0.22;0.10;;;;;;;-142.37;100.00;59669.53;5021457;28;20025;-66
2021/05/21 10:16:10;;;;;;;0.45;0.17;;;;;;;-142.37;100.00;59669.53;5028440;28;20024;-64
2021/05/21 10:18:36;;;;;;;1.00;0.20;;;;;;;-142.37;100.00;59669.53;5029243;28;20013;-62
2021/05/21 10:21:03;;;;;;;0.30;0.10;;;;;;;-142.37;100.00;59669.53;5025667;28;20525;-62
2021/05/21 10:23:45;;;;;;;1.13;0.45;;;;;;;-142.37;100.00;59669.53;5012247;28;20045;-62
2021/05/21 10:26:20;;;;;;;0.35;0.15;;;;;;;-142.37;100.00;59669.53;5012694;28;20022;-62
2021/05/21 10:28:50;;;;;;;0.88;0.25;;;;;;;-142.37;100.00;59669.53;5014900;28;20027;-62
2021/05/21 10:31:17;;;;;;;0.28;0.10;;;;;;;-142.37;100.00;59669.53;5012644;28;20033;-61
2021/05/21 10:33:43;;;;;;;0.73;0.10;;;;;;;-142.37;100.00;59669.53;5016605;28;20026;-62
2021/05/21 10:36:15;;;;;;;1.98;0.40;;;;;;;-142.37;100.00;59669.53;5025814;28;20464;-61
2021/05/21 10:39:00;;;;;;;0.80;0.20;;;;;;;-142.37;100.00;59669.53;5032342;28;20036;-61
2021/05/21 10:41:25;;;;;;;0.30;0.10;;;;;;;-142.37;100.00;59669.53;5026290;28;20419;-62
2021/05/21 10:43:52;;;;;;;0.55;0.10;;;;;;;-142.37;100.00;59669.53;5031850;28;20022;-61
2021/05/21 10:46:19;;;;;;;0.52;0.20;;;;;;;-142.37;100.00;59669.53;5022781;28;20051;-61
2021/05/21 10:49:03;;;;;;;1.42;0.22;;;;;;;-142.37;100.00;59669.53;5014985;28;20030;-62
2021/05/21 10:51:47;;;;;;;0.65;0.13;;;;;;;-142.37;100.00;59669.53;5014979;28;20044;-63
2021/05/21 10:54:33;;;;;;;;;;;;;;;-142.37;100.00;59669.53;5016218;28;20703;-62
2021/05/21 10:57:30;;;;;;;0.38;0.10;;;;;;;-142.37;100.00;59669.53;5016075;28;19909;-61
2021/05/21 10:59:59;;;;;;;0.30;0.20;;;;;;;-142.37;100.00;59669.53;4973920;28;20069;-61
2021/05/21 11:02:43;;;;;;;2.00;0.32;;;;;;;-142.37;100.00;59669.53;4974015;28;20018;-62
2021/05/21 11:05:33;;;;;;;0.30;0.20;;;;;;;-142.37;100.00;59669.53;4974985;28;20038;-63
2021/05/21 11:08:10;;;;;;;0.43;0.20;;;;;;;-142.37;100.00;59669.53;4974796;28;20031;-61
2021/05/21 11:10:35;;;;;;;0.70;0.10;;;;;;;-142.37;100.00;59669.53;4974690;28;20629;-62
2021/05/21 11:13:14;;;;;;;1.48;0.20;;;;;;;-142.37;100.00;59669.53;4974803;28;20046;-63